createdAt,value
2022-09-23T00:00:45.635Z,66.42
2022-09-23T00:03:13.007Z,66.04
2022-09-23T00:05:39.833Z,66.29
2022-09-23T00:08:08.040Z,66.28
2022-09-23T00:10:37.670Z,66.39
2022-09-23T00:13:05.166Z,65.82
2022-09-23T00:15:33.848Z,65.50
2022-09-23T00:18:00.587Z,66.44
2022-09-23T00:20:28.385Z,66.17
2022-09-23T00:22:55.124Z,66.58
2022-09-23T00:25:21.755Z,66.39
2022-09-23T00:27:48.424Z,66.25
2022-09-23T00:30:15.470Z,65.91
2022-09-23T00:32:42.275Z,66.25
2022-09-23T00:35:08.989Z,66.58
2022-09-23T00:37:35.686Z,66.43
2022-09-23T00:40:03.124Z,66.70
2022-09-23T00:42:29.855Z,66.33
2022-09-23T00:44:58.431Z,66.60
2022-09-23T00:47:32.440Z,66.52
2022-09-23T00:50:33.783Z,66.92
2022-09-23T00:53:01.813Z,66.90
2022-09-23T00:55:32.306Z,66.93
2022-09-23T00:58:01.806Z,66.85
2022-09-23T01:00:28.593Z,66.69
2022-09-23T01:02:55.363Z,66.44
2022-09-23T01:05:22.098Z,66.52
2022-09-23T01:07:49.635Z,66.73
2022-09-23T01:10:16.887Z,66.76
2022-09-23T01:12:52.648Z,66.62
2022-09-23T01:15:25.214Z,66.34
2022-09-23T01:18:09.331Z,66.31
2022-09-23T01:21:00.999Z,66.54
2022-09-23T01:23:33.672Z,66.59
2022-09-23T01:26:39.321Z,67.16
2022-09-23T01:29:35.719Z,67.08
2022-09-23T01:32:19.373Z,66.60
2022-09-23T01:35:14.915Z,66.86
2022-09-23T01:37:51.194Z,66.61
2022-09-23T01:40:19.690Z,66.79
2022-09-23T01:43:02.895Z,66.64
2022-09-23T01:45:48.426Z,66.57
2022-09-23T01:48:22.430Z,66.45
2022-09-23T01:50:56.952Z,67.02
2022-09-23T01:53:37.779Z,66.99
2022-09-23T01:56:19.914Z,67.33
2022-09-23T01:59:17.024Z,67.47
2022-09-23T02:02:08.076Z,67.28
2022-09-23T02:04:54.033Z,66.96
2022-09-23T02:07:49.655Z,67.13
2022-09-23T02:10:30.624Z,67.27
2022-09-23T02:13:00.872Z,66.94
2022-09-23T02:15:35.431Z,66.97
2022-09-23T02:18:08.739Z,66.84
2022-09-23T02:20:39.540Z,66.21
2022-09-23T02:23:09.943Z,66.19
2022-09-23T02:26:02.314Z,66.70
2022-09-23T02:28:39.256Z,66.59
2022-09-23T02:31:13.115Z,66.56
2022-09-23T02:33:46.482Z,66.90
2022-09-23T02:36:30.137Z,66.96
2022-09-23T02:38:59.312Z,67.16
2022-09-23T02:41:32.427Z,67.34
2022-09-23T02:44:02.117Z,68.02
2022-09-23T02:46:30.055Z,67.71
2022-09-23T02:49:01.104Z,67.42
2022-09-23T02:56:39.058Z,68.27
2022-09-23T02:59:06.103Z,67.19
2022-09-23T03:02:04.935Z,67.93
2022-09-23T03:04:50.586Z,67.64
2022-09-23T03:07:42.973Z,67.84
2022-09-23T03:10:21.545Z,67.18
2022-09-23T03:12:59.476Z,67.14
2022-09-23T03:15:46.691Z,67.22
2022-09-23T03:18:18.661Z,67.07
2022-09-23T03:20:50.396Z,66.96
2022-09-23T03:23:21.357Z,66.93
2022-09-23T03:25:49.846Z,66.89
2022-09-23T03:28:17.685Z,66.85
2022-09-23T03:30:44.599Z,67.21
2022-09-23T03:33:13.230Z,66.98
2022-09-23T03:36:07.748Z,66.85
2022-09-23T03:38:38.011Z,66.82
2022-09-23T03:41:05.927Z,66.97
2022-09-23T03:43:37.961Z,67.22
2022-09-23T03:46:07.148Z,67.20
2022-09-23T03:48:34.148Z,67.23
2022-09-23T03:51:22.578Z,67.20
2022-09-23T03:53:50.647Z,67.30
2022-09-23T03:56:17.557Z,67.13
2022-09-23T03:58:46.570Z,67.09
2022-09-23T04:01:14.747Z,67.10
2022-09-23T04:03:41.945Z,66.76
2022-09-23T04:06:08.917Z,67.03
2022-09-23T04:08:35.664Z,67.34
2022-09-23T04:11:02.579Z,67.10
2022-09-23T04:13:29.448Z,67.09
2022-09-23T04:15:56.199Z,67.20
2022-09-23T04:18:23.273Z,67.34
2022-09-23T04:20:49.959Z,67.12
2022-09-23T04:23:16.595Z,67.39
2022-09-23T04:25:47.561Z,67.35
2022-09-23T04:28:14.333Z,67.31
2022-09-23T04:30:45.947Z,67.46
2022-09-23T04:33:13.636Z,67.51
2022-09-23T04:35:40.733Z,67.16
2022-09-23T04:38:07.522Z,67.50
2022-09-23T04:40:35.666Z,67.60
2022-09-23T04:43:02.389Z,67.35
2022-09-23T04:45:30.145Z,67.73
2022-09-23T04:47:58.285Z,67.49
2022-09-23T04:50:26.059Z,67.61
2022-09-23T04:52:53.069Z,67.68
2022-09-23T04:55:20.059Z,67.33
2022-09-23T04:57:46.881Z,67.32
2022-09-23T05:00:15.165Z,67.72
2022-09-23T05:02:46.070Z,67.93
2022-09-23T05:05:14.021Z,67.56
2022-09-23T05:07:40.976Z,67.89
2022-09-23T05:10:08.041Z,67.57
2022-09-23T05:12:34.703Z,67.24
2022-09-23T05:15:01.358Z,67.47
2022-09-23T05:17:31.111Z,67.69
2022-09-23T05:19:58.797Z,67.99
2022-09-23T05:22:29.465Z,68.61
2022-09-23T05:24:56.082Z,68.39
2022-09-23T05:27:22.712Z,68.31
2022-09-23T05:29:49.810Z,67.82
2022-09-23T05:32:16.987Z,68.08
2022-09-23T05:34:43.674Z,68.04
2022-09-23T05:37:10.344Z,67.89
2022-09-23T05:39:37.002Z,67.80
2022-09-23T05:42:04.065Z,67.64
2022-09-23T05:44:30.695Z,67.22
2022-09-23T05:46:57.429Z,66.97
2022-09-23T05:49:37.655Z,66.93
2022-09-23T05:52:09.435Z,67.12
2022-09-23T05:54:36.492Z,66.71
2022-09-23T05:57:04.970Z,66.59
2022-09-23T05:59:31.910Z,66.00
2022-09-23T06:01:59.038Z,66.20
2022-09-23T06:04:25.746Z,65.75
2022-09-23T06:06:53.058Z,66.04
2022-09-23T06:09:19.707Z,66.16
2022-09-23T06:11:46.730Z,66.37
2022-09-23T06:14:14.657Z,66.59
2022-09-23T06:16:41.383Z,66.58
2022-09-23T06:19:08.063Z,66.88
2022-09-23T06:21:36.980Z,66.88
2022-09-23T06:24:04.522Z,67.40
2022-09-23T06:26:33.786Z,67.28
2022-09-23T06:29:02.640Z,67.51
2022-09-23T06:31:29.699Z,67.78
2022-09-23T06:34:08.684Z,67.72
2022-09-23T06:36:43.482Z,67.63
2022-09-23T06:39:10.937Z,67.67
2022-09-23T06:41:38.274Z,67.91
2022-09-23T06:44:11.569Z,67.88
2022-09-23T06:46:38.417Z,67.78
2022-09-23T06:49:05.091Z,67.88
2022-09-23T06:51:31.908Z,67.79
2022-09-23T06:53:58.526Z,67.78
2022-09-23T06:56:25.157Z,67.96
2022-09-23T06:58:52.428Z,67.87
2022-09-23T07:01:19.699Z,67.80
2022-09-23T07:03:48.152Z,68.12
2022-09-23T07:06:14.875Z,68.54
2022-09-23T07:08:46.871Z,69.20
2022-09-23T07:11:14.318Z,68.39
2022-09-23T07:13:42.151Z,68.23
2022-09-23T07:16:09.819Z,67.90
2022-09-23T07:18:37.450Z,67.92
2022-09-23T07:21:14.973Z,68.12
2022-09-23T07:23:46.191Z,67.85
2022-09-23T07:26:14.297Z,67.57
2022-09-23T07:28:40.931Z,67.41
2022-09-23T07:31:16.904Z,67.43
2022-09-23T07:33:45.883Z,66.89
2022-09-23T07:36:18.125Z,67.09
2022-09-23T07:38:45.973Z,66.81
2022-09-23T07:41:15.021Z,66.46
2022-09-23T07:43:41.771Z,66.60
2022-09-23T07:46:11.738Z,66.17
2022-09-23T07:48:38.874Z,65.68
2022-09-23T07:51:11.575Z,65.60
2022-09-23T07:53:38.195Z,65.25
2022-09-23T07:56:06.312Z,64.94
2022-09-23T07:58:34.235Z,65.10
2022-09-23T08:01:02.964Z,65.00
2022-09-23T08:03:29.747Z,65.04
2022-09-23T08:06:04.438Z,65.09
2022-09-23T08:08:31.346Z,65.03
2022-09-23T08:11:05.755Z,65.00
2022-09-23T08:13:33.180Z,65.07
2022-09-23T08:16:01.242Z,65.15
2022-09-23T08:18:36.826Z,65.08
2022-09-23T08:21:03.816Z,65.41
2022-09-23T08:23:33.753Z,65.07
2022-09-23T08:26:04.341Z,65.17
2022-09-23T08:28:33.181Z,64.94
2022-09-23T08:31:00.192Z,65.00
2022-09-23T08:33:27.211Z,64.98
2022-09-23T08:35:59.528Z,64.95
2022-09-23T08:38:26.335Z,65.56
2022-09-23T08:41:01.427Z,65.11
2022-09-23T08:43:33.219Z,65.44
2022-09-23T08:46:03.477Z,65.00
2022-09-23T08:48:41.066Z,64.89
2022-09-23T08:51:13.117Z,65.22
2022-09-23T08:53:42.223Z,65.39
2022-09-23T08:56:16.114Z,64.57
2022-09-23T08:58:50.292Z,65.16
2022-09-23T09:01:31.419Z,64.32
2022-09-23T09:04:03.516Z,64.26
2022-09-23T09:07:12.315Z,64.06
2022-09-23T09:10:14.318Z,63.41
2022-09-23T09:13:04.508Z,63.88
2022-09-23T09:15:31.734Z,63.72
2022-09-23T09:17:59.210Z,63.65
2022-09-23T09:20:47.693Z,63.33
2022-09-23T09:23:39.339Z,63.25
2022-09-23T09:26:09.505Z,63.53
2022-09-23T09:28:42.685Z,63.38
2022-09-23T09:31:15.530Z,64.19
2022-09-23T09:33:57.930Z,63.62
2022-09-23T09:36:38.675Z,63.39
2022-09-23T09:39:06.757Z,63.32
2022-09-23T09:41:33.644Z,63.26
2022-09-23T09:44:03.478Z,63.00
2022-09-23T09:46:38.259Z,62.90
2022-09-23T09:49:12.400Z,62.78
2022-09-23T09:51:42.595Z,62.82
2022-09-23T09:54:18.500Z,62.99
2022-09-23T09:56:45.243Z,63.09
2022-09-23T09:59:17.250Z,63.18
2022-09-23T10:01:44.068Z,63.32
2022-09-23T10:04:23.607Z,63.11
2022-09-23T10:07:14.168Z,63.45
2022-09-23T10:09:48.219Z,63.38
2022-09-23T10:12:21.376Z,63.42
2022-09-23T10:14:52.467Z,63.42
2022-09-23T10:17:24.369Z,63.42
2022-09-23T10:20:00.718Z,63.57
2022-09-23T10:22:36.412Z,63.67
2022-09-23T10:25:07.955Z,63.68
2022-09-23T10:27:35.948Z,63.46
2022-09-23T10:30:21.509Z,63.49
2022-09-23T10:32:48.915Z,63.67
2022-09-23T10:35:18.477Z,63.63
2022-09-23T10:37:56.290Z,63.50
2022-09-23T10:40:53.958Z,63.57
2022-09-23T10:44:06.939Z,63.77
2022-09-23T10:46:38.320Z,63.54
2022-09-23T10:49:39.069Z,63.76
2022-09-23T10:52:22.176Z,63.57
2022-09-23T10:55:19.527Z,63.38
2022-09-23T10:57:46.143Z,63.77
2022-09-23T11:00:40.828Z,63.92
2022-09-23T11:03:19.605Z,63.52
2022-09-23T11:05:52.039Z,63.78
2022-09-23T11:09:03.002Z,63.62
2022-09-23T11:11:56.956Z,64.21
2022-09-23T11:14:41.047Z,63.44
2022-09-23T11:17:22.660Z,63.81
2022-09-23T11:20:02.754Z,63.67
2022-09-23T11:22:57.450Z,63.55
2022-09-23T11:25:56.485Z,63.87
2022-09-23T11:28:47.904Z,64.00
2022-09-23T11:31:35.994Z,63.75
2022-09-23T11:34:11.653Z,63.73
2022-09-23T11:36:41.523Z,63.71
2022-09-23T11:39:18.053Z,63.56
2022-09-23T11:41:45.172Z,63.72
2022-09-23T11:44:16.577Z,63.64
2022-09-23T11:46:46.769Z,63.08
2022-09-23T11:49:16.608Z,63.16
2022-09-23T11:52:05.861Z,63.21
2022-09-23T11:54:55.660Z,63.13
2022-09-23T11:57:48.675Z,62.75
2022-09-23T12:00:19.954Z,62.86
2022-09-23T12:03:09.175Z,63.00
2022-09-23T12:05:43.033Z,62.50
2022-09-23T12:08:23.262Z,62.41
2022-09-23T12:11:01.446Z,62.04
2022-09-23T12:13:37.768Z,62.17
2022-09-23T12:16:38.846Z,61.49
2022-09-23T12:19:36.309Z,61.05
2022-09-23T12:22:43.873Z,61.72
2022-09-23T12:25:33.270Z,61.84
2022-09-23T12:28:04.749Z,61.85
2022-09-23T12:30:34.155Z,61.75
2022-09-23T12:33:22.024Z,61.53
2022-09-23T12:35:48.735Z,61.65
2022-09-23T12:38:22.892Z,61.32
2022-09-23T12:40:52.130Z,61.61
2022-09-23T12:43:35.447Z,62.09
2022-09-23T12:46:17.344Z,61.74
2022-09-23T12:49:03.660Z,61.85
2022-09-23T12:51:36.652Z,61.58
2022-09-23T12:54:03.177Z,60.76
2022-09-23T12:56:32.719Z,60.49
2022-09-23T12:59:01.895Z,60.52
2022-09-23T13:01:28.775Z,60.98
2022-09-23T13:04:16.079Z,60.64
2022-09-23T13:07:06.255Z,60.48
2022-09-23T13:09:39.566Z,59.87
2022-09-23T13:12:12.946Z,60.11
2022-09-23T13:14:40.667Z,59.95
2022-09-23T13:17:07.630Z,59.93
2022-09-23T13:19:38.545Z,59.67
2022-09-23T13:22:12.659Z,59.35
2022-09-23T13:24:42.393Z,59.32
2022-09-23T13:27:22.664Z,59.46
2022-09-23T13:30:07.611Z,59.72
2022-09-23T13:32:40.893Z,58.78
2022-09-23T13:35:13.570Z,58.65
2022-09-23T13:37:47.996Z,59.13
2022-09-23T13:40:17.864Z,59.35
2022-09-23T13:42:48.810Z,59.58
2022-09-23T13:45:21.289Z,59.25
2022-09-23T13:47:48.605Z,60.06
2022-09-23T13:50:24.753Z,58.54
2022-09-23T13:52:56.759Z,58.66
2022-09-23T13:55:25.185Z,59.28
2022-09-23T13:58:00.211Z,58.62
2022-09-23T14:00:27.037Z,59.00
2022-09-23T14:02:53.621Z,58.63
2022-09-23T14:05:26.265Z,58.75
2022-09-23T14:07:54.163Z,58.81
2022-09-23T14:10:22.058Z,59.14
2022-09-23T14:12:50.346Z,58.51
2022-09-23T14:15:18.984Z,58.80
2022-09-23T14:17:47.603Z,58.62
2022-09-23T14:20:15.118Z,58.75
2022-09-23T14:22:41.698Z,59.74
2022-09-23T14:25:18.052Z,58.91
2022-09-23T14:27:46.653Z,59.32
2022-09-23T14:30:20.329Z,59.55
2022-09-23T14:32:49.927Z,59.53
2022-09-23T14:35:28.191Z,60.34
2022-09-23T14:38:17.001Z,60.17
2022-09-23T14:40:51.951Z,60.34
2022-09-23T14:43:26.502Z,60.03
2022-09-23T14:45:56.133Z,59.60
2022-09-23T14:48:24.003Z,60.39
2022-09-23T14:51:17.288Z,60.36
2022-09-23T14:53:48.670Z,60.87
2022-09-23T14:56:21.059Z,61.90
2022-09-23T14:58:58.911Z,61.75
2022-09-23T15:01:34.610Z,60.55
2022-09-23T15:04:21.380Z,60.66
2022-09-23T15:06:53.877Z,60.80
2022-09-23T15:09:36.240Z,60.39
2022-09-23T15:12:07.026Z,60.61
2022-09-23T15:14:38.844Z,60.06
2022-09-23T15:17:23.892Z,60.47
2022-09-23T15:19:56.770Z,60.44
2022-09-23T15:22:24.582Z,60.74
2022-09-23T15:24:53.271Z,61.94
2022-09-23T15:27:27.748Z,62.04
2022-09-23T15:29:54.507Z,62.43
2022-09-23T15:32:22.000Z,62.65
2022-09-23T15:34:50.310Z,62.80
2022-09-23T15:37:17.666Z,62.96
2022-09-23T15:39:44.299Z,63.11
2022-09-23T15:42:11.742Z,63.20
2022-09-23T15:44:38.410Z,63.79
2022-09-23T15:47:05.100Z,63.91
2022-09-23T15:49:36.587Z,64.21
2022-09-23T15:52:05.145Z,64.24
2022-09-23T15:54:34.643Z,64.31
2022-09-23T15:57:01.350Z,64.07
2022-09-23T15:59:30.782Z,64.18
2022-09-23T16:01:59.190Z,64.73
2022-09-23T16:04:28.388Z,64.81
2022-09-23T16:06:55.000Z,65.03
2022-09-23T16:09:21.570Z,65.11
2022-09-23T16:11:49.616Z,65.03
2022-09-23T16:14:17.257Z,65.40
2022-09-23T16:16:45.255Z,65.16
2022-09-23T16:19:12.330Z,65.37
2022-09-23T16:21:41.030Z,65.61
2022-09-23T16:24:18.763Z,65.94
2022-09-23T16:26:47.505Z,65.64
2022-09-23T16:29:14.229Z,65.78
2022-09-23T16:31:40.965Z,65.77
2022-09-23T16:34:07.694Z,65.64
2022-09-23T16:36:41.146Z,65.66
2022-09-23T16:39:11.269Z,65.82
2022-09-23T16:41:42.900Z,66.00
2022-09-23T16:44:10.712Z,66.02
2022-09-23T16:46:43.015Z,67.68
2022-09-23T16:49:11.947Z,66.36
2022-09-23T16:51:38.959Z,66.63
2022-09-23T16:54:12.520Z,67.04
2022-09-23T16:56:44.959Z,66.98
2022-09-23T16:59:16.026Z,67.10
2022-09-23T17:02:02.179Z,67.26
2022-09-23T17:04:29.015Z,67.13
2022-09-23T17:06:56.520Z,67.01
2022-09-23T17:09:28.421Z,67.32
2022-09-23T17:12:15.548Z,67.66
2022-09-23T17:14:43.646Z,67.63
2022-09-23T17:17:10.240Z,67.63
2022-09-23T17:19:38.089Z,67.80
2022-09-23T17:22:04.702Z,67.75
2022-09-23T17:24:31.428Z,67.74
2022-09-23T17:26:58.169Z,67.71
2022-09-23T17:29:27.079Z,67.73
2022-09-23T17:31:54.273Z,67.69
2022-09-23T17:34:21.543Z,67.74
2022-09-23T17:36:48.467Z,67.73
2022-09-23T17:39:15.087Z,67.70
2022-09-23T17:41:41.849Z,68.01
2022-09-23T17:44:12.708Z,68.20
2022-09-23T17:46:44.762Z,68.68
2022-09-23T17:49:12.081Z,68.65
2022-09-23T17:51:38.833Z,69.09
2022-09-23T17:54:06.259Z,68.93
2022-09-23T17:56:33.897Z,68.96
2022-09-23T17:59:01.937Z,68.89
2022-09-23T18:01:36.264Z,69.51
2022-09-23T18:04:05.476Z,69.21
2022-09-23T18:06:37.776Z,69.16
2022-09-23T18:09:06.325Z,69.54
2022-09-23T18:11:35.301Z,69.32
2022-09-23T18:14:07.494Z,69.63
2022-09-23T18:16:37.423Z,69.56
2022-09-23T18:19:04.495Z,69.41
2022-09-23T18:21:34.367Z,69.47
2022-09-23T18:26:49.677Z,69.41
2022-09-23T18:29:16.475Z,69.43
2022-09-23T18:31:44.405Z,69.82
2022-09-23T18:34:16.632Z,69.95
2022-09-23T18:36:43.842Z,70.17
2022-09-23T18:39:11.040Z,70.32
2022-09-23T18:41:38.139Z,70.16
2022-09-23T18:44:04.900Z,70.06
2022-09-23T18:46:31.987Z,69.93
2022-09-23T18:49:17.821Z,70.40
2022-09-23T18:51:52.585Z,70.78
2022-09-23T18:54:22.290Z,70.33
2022-09-23T18:56:51.943Z,70.14
2022-09-23T18:59:20.543Z,70.75
2022-09-23T19:01:48.994Z,71.24
2022-09-23T19:04:18.341Z,71.37
2022-09-23T19:06:45.252Z,71.59
2022-09-23T19:09:12.761Z,71.44
2022-09-23T19:11:39.713Z,71.35
2022-09-23T19:14:10.820Z,71.29
2022-09-23T19:16:39.270Z,71.35
2022-09-23T19:19:06.453Z,71.61
2022-09-23T19:21:33.872Z,71.79
2022-09-23T19:24:03.563Z,71.96
2022-09-23T19:26:37.560Z,71.98
2022-09-23T19:29:05.512Z,71.30
2022-09-23T19:31:39.962Z,71.56
2022-09-23T19:34:11.966Z,71.97
2022-09-23T19:36:40.764Z,71.89
2022-09-23T19:39:14.995Z,71.68
2022-09-23T19:41:41.830Z,71.88
2022-09-23T19:44:09.270Z,72.01
2022-09-23T19:46:38.538Z,72.14
2022-09-23T19:49:06.481Z,72.09
2022-09-23T19:51:34.036Z,72.25
2022-09-23T19:54:01.540Z,72.52
2022-09-23T19:56:29.259Z,72.38
2022-09-23T19:58:57.762Z,72.54
2022-09-23T20:01:26.537Z,72.69
2022-09-23T20:03:53.670Z,72.77
2022-09-23T20:06:20.808Z,72.38
2022-09-23T20:08:48.076Z,72.71
2022-09-23T20:11:17.343Z,72.69
2022-09-23T20:13:47.083Z,72.67
2022-09-23T20:16:15.634Z,72.59
2022-09-23T20:18:42.715Z,72.65
2022-09-23T20:21:12.284Z,72.69
2022-09-23T20:23:39.315Z,72.81
2022-09-23T20:26:25.233Z,72.92
2022-09-23T20:28:51.902Z,72.99
2022-09-23T20:31:20.759Z,73.07
2022-09-23T20:33:58.523Z,73.65
2022-09-23T20:36:26.138Z,72.94
2022-09-23T20:38:56.881Z,72.88
2022-09-23T20:41:23.552Z,73.02
2022-09-23T20:43:54.264Z,72.88
2022-09-23T20:46:23.397Z,72.92
2022-09-23T20:48:50.317Z,73.14
2022-09-23T20:51:17.724Z,73.26
2022-09-23T20:53:44.450Z,73.10
2022-09-23T20:56:11.415Z,73.38
2022-09-23T20:58:38.097Z,72.61
2022-09-23T21:01:10.630Z,72.99
2022-09-23T21:03:43.701Z,72.78
2022-09-23T21:06:10.839Z,72.87
2022-09-23T21:08:37.711Z,73.36
2022-09-23T21:11:07.987Z,73.36
2022-09-23T21:13:34.719Z,73.30
2022-09-23T21:16:06.494Z,73.65
2022-09-23T21:18:33.903Z,73.34
2022-09-23T21:21:01.008Z,73.16
2022-09-23T21:23:29.524Z,72.82
2022-09-23T21:26:03.363Z,73.39
2022-09-23T21:28:35.404Z,73.23
2022-09-23T21:31:04.240Z,73.33
2022-09-23T21:33:31.252Z,73.52
2022-09-23T21:36:03.388Z,73.60
2022-09-23T21:38:31.082Z,73.89
2022-09-23T21:41:02.553Z,73.70
2022-09-23T21:43:33.397Z,73.60
2022-09-23T21:46:05.198Z,73.92
2022-09-23T21:48:33.704Z,73.86
2022-09-23T21:51:20.759Z,74.51
2022-09-23T21:53:47.961Z,73.90
2022-09-23T21:56:23.552Z,73.76
2022-09-23T21:58:52.130Z,73.79
2022-09-23T22:01:20.864Z,74.00
2022-09-23T22:03:53.005Z,74.01
2022-09-23T22:06:27.514Z,74.42
2022-09-23T22:08:59.847Z,74.15
2022-09-23T22:11:47.710Z,74.10
2022-09-23T22:14:15.934Z,74.17
2022-09-23T22:16:43.088Z,74.68
2022-09-23T22:19:10.880Z,73.79
2022-09-23T22:21:39.069Z,73.82
2022-09-23T22:24:07.660Z,73.75
2022-09-23T22:26:37.015Z,73.96
2022-09-23T22:29:24.564Z,73.84
2022-09-23T22:32:09.881Z,74.48
2022-09-23T22:34:51.887Z,74.75
2022-09-23T22:37:27.155Z,75.22
2022-09-23T22:39:54.686Z,74.74
2022-09-23T22:42:22.563Z,75.15
2022-09-23T22:44:50.168Z,74.61
2022-09-23T22:47:20.147Z,74.89
2022-09-23T22:49:47.411Z,74.75
2022-09-23T22:52:16.016Z,74.56
2022-09-23T22:54:43.259Z,74.47
2022-09-23T22:57:09.968Z,74.69
2022-09-23T22:59:39.943Z,74.70
2022-09-23T23:02:08.031Z,74.97
2022-09-23T23:04:36.494Z,74.13
2022-09-23T23:07:03.310Z,73.84
2022-09-23T23:09:29.968Z,73.57
2022-09-23T23:11:56.686Z,73.66
2022-09-23T23:14:23.364Z,73.08
2022-09-23T23:16:50.096Z,73.09
2022-09-23T23:19:17.544Z,73.26
2022-09-23T23:21:44.889Z,73.35
2022-09-23T23:24:15.215Z,73.30
2022-09-23T23:26:42.674Z,73.40
2022-09-23T23:29:11.575Z,73.24
2022-09-23T23:31:38.538Z,73.45
2022-09-23T23:34:07.234Z,73.49
2022-09-23T23:36:34.341Z,73.91
2022-09-23T23:39:01.016Z,73.49
2022-09-23T23:41:28.476Z,74.13
2022-09-23T23:44:00.233Z,73.94
2022-09-23T23:46:29.982Z,73.98
2022-09-23T23:48:57.248Z,74.17
2022-09-23T23:51:27.785Z,74.01
2022-09-23T23:53:56.197Z,73.99
2022-09-23T23:56:24.659Z,74.36
2022-09-23T23:59:00.106Z,74.71
